Time;durP1;ratioP1;P1;durP2;ratioP2;P2;SDS_P1;SDS_P2;PMS_P1;PMS_P2;Temp;Humidity;BMP_temperature;BMP_pressure;BME280_temperature;BME280_humidity;BME280_pressure;Samples;Min_cycle;Max_cycle;Signal;HPM_P1;HPM_P2
2024/02/16 00:00:24;;;;;;;4.70;2.92;;;9.20;99.90;;;;;;5108017;28;20028;-68
2024/02/16 00:02:50;;;;;;;5.70;2.78;;;9.20;99.90;;;;;;5085873;28;20024;-68
2024/02/16 00:05:16;;;;;;;5.28;3.30;;;9.10;99.90;;;;;;5088213;28;20027;-68
2024/02/16 00:07:42;;;;;;;3.80;2.78;;;9.10;99.90;;;;;;5109047;28;20036;-67
2024/02/16 00:10:09;;;;;;;5.88;2.92;;;9.10;99.90;;;;;;5095843;28;20036;-68
2024/02/16 00:12:35;;;;;;;4.72;2.97;;;9.10;99.90;;;;;;5098306;28;20067;-68
2024/02/16 00:15:02;;;;;;;4.88;3.15;;;9.00;99.90;;;;;;5106524;28;20047;-67
2024/02/16 00:17:28;;;;;;;6.70;3.10;;;9.00;99.90;;;;;;5108981;28;20030;-68
2024/02/16 00:19:57;;;;;;;5.57;3.15;;;9.00;99.90;;;;;;5100519;28;20012;-68
2024/02/16 00:22:23;;;;;;;5.07;3.17;;;9.00;99.90;;;;;;5082136;28;20074;-67
2024/02/16 00:24:49;;;;;;;4.43;3.22;;;9.00;99.90;;;;;;5113001;28;20039;-68
2024/02/16 00:27:15;;;;;;;5.85;2.92;;;9.00;99.90;;;;;;5104189;27;20052;-67
2024/02/16 00:29:41;;;;;;;7.35;3.20;;;9.00;99.90;;;;;;5088752;28;20507;-68
2024/02/16 00:32:07;;;;;;;6.75;2.58;;;9.00;99.90;;;;;;5105497;28;20031;-67
2024/02/16 00:34:36;;;;;;;6.15;2.95;;;9.00;99.90;;;;;;5107476;28;20094;-68
2024/02/16 00:37:05;;;;;;;3.33;2.23;;;9.00;99.90;;;;;;5102701;28;20535;-68
2024/02/16 00:39:31;;;;;;;3.70;2.50;;;9.00;99.90;;;;;;5105754;28;20020;-68
2024/02/16 00:41:56;;;;;;;5.78;3.05;;;8.90;99.90;;;;;;5110014;28;20039;-68
2024/02/16 00:44:22;;;;;;;5.85;2.42;;;8.90;99.90;;;;;;5112868;28;20491;-68
2024/02/16 00:46:47;;;;;;;4.53;2.67;;;8.90;99.90;;;;;;5102628;28;20031;-68
2024/02/16 00:49:13;;;;;;;6.32;3.42;;;8.90;99.90;;;;;;5102749;28;20020;-68
2024/02/16 00:51:40;;;;;;;6.63;3.17;;;8.90;99.90;;;;;;5101442;28;20028;-68
2024/02/16 00:54:05;;;;;;;4.85;3.03;;;8.90;99.90;;;;;;5100796;28;20019;-68
2024/02/16 00:56:32;;;;;;;5.15;2.95;;;8.90;99.90;;;;;;5100387;28;20475;-68
2024/02/16 00:58:58;;;;;;;4.93;2.80;;;8.90;99.90;;;;;;5101329;28;20027;-68
2024/02/16 01:01:26;;;;;;;4.03;2.78;;;8.90;99.90;;;;;;5099965;28;20024;-68
2024/02/16 01:03:52;;;;;;;5.40;2.90;;;9.00;99.90;;;;;;5101257;28;20087;-68
2024/02/16 01:06:20;;;;;;;4.78;2.90;;;9.00;99.90;;;;;;5099333;28;20035;-68
2024/02/16 01:08:46;;;;;;;4.80;2.80;;;8.90;99.90;;;;;;5101365;28;20477;-68
2024/02/16 01:11:12;;;;;;;3.95;2.67;;;8.90;99.90;;;;;;5101961;28;20051;-69
2024/02/16 01:13:39;;;;;;;4.32;2.95;;;9.00;99.90;;;;;;5100880;28;20099;-68
2024/02/16 01:16:05;;;;;;;5.35;2.42;;;9.00;99.90;;;;;;5103917;28;20035;-68
2024/02/16 01:18:32;;;;;;;4.05;2.63;;;9.00;99.90;;;;;;5105655;28;20028;-68
2024/02/16 01:20:58;;;;;;;3.38;2.22;;;9.00;99.90;;;;;;5088747;28;20050;-68
2024/02/16 01:23:24;;;;;;;4.18;2.47;;;9.00;99.90;;;;;;5107308;28;20109;-69
2024/02/16 01:25:49;;;;;;;5.05;2.92;;;9.00;99.90;;;;;;5099615;28;20040;-70
2024/02/16 01:28:16;;;;;;;4.05;2.45;;;9.00;99.90;;;;;;5093150;28;20118;-68
2024/02/16 01:30:45;;;;;;;6.22;2.70;;;9.00;99.90;;;;;;5091115;28;20020;-69
2024/02/16 01:33:10;;;;;;;4.30;2.55;;;9.00;99.90;;;;;;5091224;28;20030;-70
2024/02/16 01:35:36;;;;;;;2.90;2.28;;;9.00;99.90;;;;;;5070272;28;20032;-69
2024/02/16 01:38:02;;;;;;;4.13;2.78;;;9.00;99.90;;;;;;5089548;28;20031;-70
2024/02/16 01:40:28;;;;;;;4.70;2.58;;;9.00;99.90;;;;;;5092000;28;20484;-68
2024/02/16 01:42:54;;;;;;;5.20;2.35;;;9.10;99.90;;;;;;5092125;28;20028;-69
2024/02/16 01:45:20;;;;;;;4.07;2.60;;;9.10;99.90;;;;;;5091699;28;20027;-69
2024/02/16 01:47:47;;;;;;;4.45;2.28;;;9.20;99.90;;;;;;5092261;28;20053;-69
2024/02/16 01:50:15;;;;;;;2.95;2.08;;;9.20;99.90;;;;;;5091246;28;20028;-69
2024/02/16 01:52:43;;;;;;;2.65;1.90;;;9.30;99.90;;;;;;5091423;28;20024;-69
2024/02/16 01:55:11;;;;;;;3.95;2.35;;;9.30;99.90;;;;;;5091921;28;20036;-69
2024/02/16 01:57:40;;;;;;;5.05;2.30;;;9.30;99.90;;;;;;5091743;28;20450;-68
2024/02/16 02:00:09;;;;;;;4.10;2.58;;;9.30;99.90;;;;;;5089350;28;20020;-68
2024/02/16 02:02:35;;;;;;;5.33;2.40;;;9.30;99.90;;;;;;5091666;28;20111;-68
2024/02/16 02:05:02;;;;;;;5.05;2.67;;;9.30;99.90;;;;;;5091978;28;20024;-69
2024/02/16 02:07:27;;;;;;;5.63;2.53;;;9.30;99.90;;;;;;5092031;28;20056;-69
2024/02/16 02:09:54;;;;;;;6.97;2.90;;;9.20;99.90;;;;;;5091001;28;20123;-69
2024/02/16 02:12:20;;;;;;;2.70;2.08;;;9.20;99.90;;;;;;5092298;28;20024;-69
2024/02/16 02:14:46;;;;;;;3.65;2.30;;;9.10;99.90;;;;;;5072450;28;20020;-69
2024/02/16 02:17:12;;;;;;;2.85;2.17;;;9.10;99.90;;;;;;5092130;28;20385;-69
2024/02/16 02:19:38;;;;;;;5.70;2.67;;;9.10;99.90;;;;;;5090692;28;20035;-69
2024/02/16 02:22:04;;;;;;;3.88;2.63;;;9.00;99.90;;;;;;5091550;28;20074;-69
2024/02/16 02:24:30;;;;;;;3.85;2.50;;;9.00;99.90;;;;;;5089783;28;20489;-69
2024/02/16 02:26:57;;;;;;;4.95;2.97;;;9.00;99.90;;;;;;5099966;28;20043;-69
2024/02/16 02:29:23;;;;;;;9.52;3.30;;;9.00;99.90;;;;;;5085349;28;20033;-69
2024/02/16 02:31:49;;;;;;;6.95;4.25;;;9.10;99.90;;;;;;5091740;28;20090;-69
2024/02/16 02:34:15;;;;;;;9.85;4.53;;;9.20;99.90;;;;;;5091545;28;20024;-69
2024/02/16 02:36:41;;;;;;;10.10;5.38;;;9.20;99.90;;;;;;5072175;28;20044;-69
2024/02/16 02:39:07;;;;;;;5.50;3.70;;;9.20;99.90;;;;;;5084172;28;20059;-68
2024/02/16 02:41:32;;;;;;;6.18;3.75;;;9.20;99.90;;;;;;5075193;28;20542;-69
2024/02/16 02:43:58;;;;;;;8.02;3.67;;;9.20;99.90;;;;;;5086526;28;20030;-68
2024/02/16 02:46:23;;;;;;;8.00;3.97;;;9.20;99.90;;;;;;5085882;28;20450;-69
2024/02/16 02:48:51;;;;;;;6.60;3.83;;;9.10;99.90;;;;;;5094259;28;20183;-69
2024/02/16 02:51:17;;;;;;;5.95;3.75;;;9.10;99.90;;;;;;5087970;28;20031;-69
2024/02/16 02:53:43;;;;;;;6.90;3.47;;;9.10;99.90;;;;;;5087299;28;20522;-69
2024/02/16 02:56:08;;;;;;;5.63;3.38;;;9.10;99.90;;;;;;5089424;28;20050;-69
2024/02/16 02:58:34;;;;;;;9.50;3.83;;;9.10;99.90;;;;;;5093674;28;20547;-69
2024/02/16 03:01:00;;;;;;;7.60;3.10;;;9.10;99.90;;;;;;5070130;28;20465;-68
2024/02/16 03:03:26;;;;;;;5.93;3.17;;;9.10;99.90;;;;;;5088736;28;20445;-68
2024/02/16 03:05:51;;;;;;;7.18;3.55;;;9.00;99.90;;;;;;5093181;28;20458;-68
2024/02/16 03:08:17;;;;;;;7.50;3.58;;;9.00;99.90;;;;;;5093179;28;20445;-68
2024/02/16 03:10:44;;;;;;;6.00;3.28;;;9.00;99.90;;;;;;5086996;28;20021;-69
2024/02/16 03:13:12;;;;;;;6.82;3.65;;;9.00;99.90;;;;;;5095594;28;20024;-69
2024/02/16 03:15:38;;;;;;;4.90;2.92;;;9.00;99.90;;;;;;5078337;28;20028;-69
2024/02/16 03:18:08;;;;;;;6.22;3.75;;;8.90;99.90;;;;;;5069710;28;20077;-68
2024/02/16 03:20:34;;;;;;;4.97;3.20;;;8.90;99.90;;;;;;5098616;28;20357;-69
2024/02/16 03:23:00;;;;;;;6.00;3.60;;;8.90;99.90;;;;;;5093341;28;20085;-69
2024/02/16 03:25:25;;;;;;;7.60;4.18;;;8.90;99.90;;;;;;5084002;28;20123;-68
2024/02/16 03:27:53;;;;;;;5.20;3.22;;;8.90;99.90;;;;;;5089880;28;20080;-69
2024/02/16 03:30:19;;;;;;;5.18;3.15;;;8.90;99.90;;;;;;5090508;28;20028;-69
2024/02/16 03:32:52;;;;;;;6.18;3.50;;;8.90;99.90;;;;;;5090192;28;20028;-69
2024/02/16 03:35:18;;;;;;;4.90;3.50;;;8.90;99.90;;;;;;5090815;28;20028;-69
2024/02/16 03:37:44;;;;;;;5.50;3.78;;;8.80;99.90;;;;;;5090517;28;20028;-69
2024/02/16 03:40:12;;;;;;;6.28;3.53;;;8.80;99.90;;;;;;5090762;28;20028;-69
2024/02/16 03:42:38;;;;;;;5.30;3.72;;;8.80;99.90;;;;;;5089919;28;20429;-68
2024/02/16 03:45:04;;;;;;;5.68;3.13;;;8.90;99.90;;;;;;5090364;28;20388;-69
2024/02/16 03:47:30;;;;;;;4.90;3.05;;;8.80;99.90;;;;;;5090418;28;20043;-70
2024/02/16 03:49:56;;;;;;;4.18;2.80;;;8.80;99.90;;;;;;5089942;28;20024;-70
2024/02/16 03:52:21;;;;;;;3.65;2.47;;;8.80;99.90;;;;;;5091451;28;20465;-70
2024/02/16 03:54:50;;;;;;;6.28;2.90;;;8.80;99.90;;;;;;5089776;28;20102;-69
2024/02/16 03:57:16;;;;;;;4.82;2.95;;;8.80;99.90;;;;;;5072896;28;20030;-69
2024/02/16 03:59:45;;;;;;;4.55;2.85;;;8.80;99.90;;;;;;5089739;28;20024;-68
2024/02/16 04:02:13;;;;;;;4.75;2.63;;;8.90;99.90;;;;;;5090731;28;20072;-69
2024/02/16 04:04:39;;;;;;;4.55;2.53;;;8.80;99.90;;;;;;5088893;28;20093;-70
2024/02/16 04:07:06;;;;;;;4.10;2.03;;;8.80;99.90;;;;;;5089655;28;20115;-70
2024/02/16 04:09:35;;;;;;;5.88;2.83;;;8.80;99.90;;;;;;5089873;28;20087;-69
2024/02/16 04:12:01;;;;;;;7.28;3.42;;;8.90;99.90;;;;;;5090712;28;20426;-69
2024/02/16 04:14:27;;;;;;;7.25;3.33;;;8.90;99.90;;;;;;5089638;28;20106;-69
2024/02/16 04:16:53;;;;;;;5.65;3.42;;;8.90;99.90;;;;;;5089713;28;20127;-68
2024/02/16 04:19:19;;;;;;;7.63;4.22;;;8.90;99.90;;;;;;5090240;28;20063;-70
2024/02/16 04:21:44;;;;;;;9.63;3.92;;;8.90;99.90;;;;;;5089028;28;20024;-68
2024/02/16 04:24:10;;;;;;;7.18;4.15;;;8.90;99.90;;;;;;5090333;28;20052;-69
2024/02/16 04:26:36;;;;;;;6.45;3.95;;;8.90;99.90;;;;;;5079427;28;20050;-69
2024/02/16 04:29:04;;;;;;;6.18;3.33;;;8.90;99.90;;;;;;5102802;28;20024;-69
2024/02/16 04:31:30;;;;;;;7.78;3.92;;;8.90;99.90;;;;;;5093144;28;20042;-69
2024/02/16 04:33:56;;;;;;;9.23;5.00;;;8.90;99.90;;;;;;5096113;28;20143;-68
2024/02/16 04:36:21;;;;;;;9.15;5.20;;;8.90;99.90;;;;;;5100914;28;20489;-68
2024/02/16 04:38:47;;;;;;;9.85;4.95;;;9.00;99.90;;;;;;5097425;28;20024;-68
2024/02/16 04:41:13;;;;;;;7.30;4.40;;;9.00;99.90;;;;;;5090932;28;20430;-68
2024/02/16 04:43:39;;;;;;;9.50;4.72;;;9.00;99.90;;;;;;5099675;28;20039;-68
2024/02/16 04:46:04;;;;;;;7.72;4.07;;;9.10;99.90;;;;;;5098775;28;20043;-68
2024/02/16 04:48:32;;;;;;;8.10;4.32;;;9.10;99.90;;;;;;5080833;28;20035;-68
2024/02/16 04:50:57;;;;;;;6.82;4.38;;;9.00;99.90;;;;;;5109686;28;20019;-68
2024/02/16 04:53:23;;;;;;;7.97;4.65;;;9.10;99.90;;;;;;5105761;28;20027;-67
2024/02/16 04:55:49;;;;;;;6.53;4.25;;;9.10;99.90;;;;;;5098352;28;20040;-70
2024/02/16 04:58:14;;;;;;;8.23;4.40;;;9.10;99.90;;;;;;5096456;28;20027;-69
2024/02/16 05:00:40;;;;;;;6.30;4.05;;;9.00;99.90;;;;;;5089787;28;20108;-68
2024/02/16 05:03:06;;;;;;;7.43;4.90;;;9.00;99.90;;;;;;5107446;28;20069;-68
2024/02/16 05:05:31;;;;;;;7.10;4.75;;;9.00;99.90;;;;;;5096437;28;20031;-70
2024/02/16 05:07:57;;;;;;;7.20;4.45;;;8.90;99.90;;;;;;5094077;28;20032;-67
2024/02/16 05:10:23;;;;;;;8.90;5.05;;;8.90;99.90;;;;;;5104070;28;20020;-68
2024/02/16 05:12:48;;;;;;;5.70;3.97;;;8.90;99.90;;;;;;5100379;28;20027;-68
2024/02/16 05:15:14;;;;;;;6.65;4.35;;;8.90;99.90;;;;;;5094038;28;20372;-68
2024/02/16 05:17:40;;;;;;;8.75;4.80;;;8.80;99.90;;;;;;5104162;28;20034;-68
2024/02/16 05:20:14;;;;;;;10.23;4.97;;;8.80;99.90;;;;;;5099114;28;20104;-68
2024/02/16 05:22:45;;;;;;;7.45;5.00;;;8.80;99.90;;;;;;5094688;28;20494;-68
2024/02/16 05:25:17;;;;;;;6.43;3.85;;;8.80;99.90;;;;;;5099648;28;20031;-69
2024/02/16 05:27:44;;;;;;;7.70;4.80;;;8.80;99.90;;;;;;5106506;28;20118;-67
2024/02/16 05:30:12;;;;;;;9.45;4.72;;;8.80;99.90;;;;;;5099169;28;20035;-69
2024/02/16 05:32:38;;;;;;;9.27;5.20;;;8.70;99.90;;;;;;5095618;28;20063;-69
2024/02/16 05:35:11;;;;;;;9.55;6.03;;;8.80;99.90;;;;;;5098389;28;20039;-69
2024/02/16 05:37:44;;;;;;;7.30;5.22;;;8.70;99.90;;;;;;5103430;28;20523;-69
2024/02/16 05:40:30;;;;;;;11.07;6.35;;;8.80;99.90;;;;;;5096595;28;20437;-69
2024/02/16 05:42:57;;;;;;;8.20;5.60;;;8.70;99.90;;;;;;5097298;28;20011;-69
2024/02/16 05:45:24;;;;;;;9.55;6.18;;;8.70;99.90;;;;;;5098937;28;20509;-69
2024/02/16 05:47:50;;;;;;;9.20;5.68;;;8.70;99.90;;;;;;5093599;28;20047;-68
2024/02/16 05:50:16;;;;;;;9.98;5.25;;;8.70;99.90;;;;;;5105980;28;20043;-68
2024/02/16 05:52:43;;;;;;;8.40;5.13;;;8.70;99.90;;;;;;5102823;28;20020;-69
2024/02/16 05:55:10;;;;;;;8.75;5.03;;;8.70;99.90;;;;;;5104989;28;20103;-68
2024/02/16 05:57:37;;;;;;;9.82;5.97;;;8.60;99.90;;;;;;5093954;28;20170;-70
2024/02/16 06:00:04;;;;;;;10.88;5.65;;;8.60;99.90;;;;;;5091686;28;20032;-69
2024/02/16 06:02:31;;;;;;;6.43;4.85;;;8.60;99.90;;;;;;5104122;28;20453;-69
2024/02/16 06:04:57;;;;;;;8.68;5.15;;;8.60;99.90;;;;;;5101323;28;20464;-69
2024/02/16 06:07:23;;;;;;;7.32;4.63;;;8.50;99.90;;;;;;5093239;28;20116;-68
2024/02/16 06:09:48;;;;;;;9.77;5.20;;;8.50;99.90;;;;;;5090967;28;20529;-68
2024/02/16 06:12:15;;;;;;;10.27;5.25;;;8.50;99.90;;;;;;5092593;28;20020;-69
2024/02/16 06:14:41;;;;;;;7.70;4.20;;;8.50;99.90;;;;;;5096557;28;20380;-69
2024/02/16 06:17:08;;;;;;;11.57;4.97;;;8.50;99.90;;;;;;5099045;28;20074;-69
2024/02/16 06:19:34;;;;;;;7.28;4.47;;;8.50;99.90;;;;;;5095899;28;20024;-70
2024/02/16 06:22:00;;;;;;;8.90;5.15;;;8.40;99.90;;;;;;5093253;28;20032;-68
2024/02/16 06:24:25;;;;;;;8.00;4.63;;;8.40;99.90;;;;;;5095351;28;20070;-69
2024/02/16 06:26:51;;;;;;;8.43;5.03;;;8.40;99.90;;;;;;5107139;28;20479;-69
2024/02/16 06:29:19;;;;;;;10.85;5.55;;;8.40;99.90;;;;;;5102742;28;20137;-68
2024/02/16 06:31:48;;;;;;;8.93;5.60;;;8.40;99.90;;;;;;5093922;28;20035;-69
2024/02/16 06:34:14;;;;;;;12.23;5.68;;;8.40;99.90;;;;;;5080576;28;20029;-69
2024/02/16 06:36:40;;;;;;;15.73;8.75;;;8.50;99.90;;;;;;5103237;28;20059;-69
2024/02/16 06:39:06;;;;;;;9.77;7.00;;;8.50;99.90;;;;;;5099009;28;20410;-69
2024/02/16 06:41:31;;;;;;;8.93;5.15;;;8.50;99.90;;;;;;5092096;28;20016;-69
2024/02/16 06:43:57;;;;;;;7.57;5.22;;;8.50;99.90;;;;;;5101930;28;20028;-69
2024/02/16 06:46:24;;;;;;;9.60;5.22;;;8.50;99.90;;;;;;5091841;28;20036;-68
2024/02/16 06:48:50;;;;;;;9.93;5.13;;;8.50;99.90;;;;;;5088574;28;20026;-69
2024/02/16 06:51:15;;;;;;;8.98;4.97;;;8.50;99.90;;;;;;5110050;28;20019;-69
2024/02/16 06:53:41;;;;;;;11.80;4.85;;;8.50;99.90;;;;;;5079916;28;20024;-69
2024/02/16 06:56:07;;;;;;;11.35;5.18;;;8.50;99.90;;;;;;5093036;28;20034;-68
2024/02/16 06:58:33;;;;;;;10.23;4.97;;;8.50;99.90;;;;;;5094673;28;20098;-68
2024/02/16 07:01:03;;;;;;;7.53;3.80;;;8.60;99.90;;;;;;5102370;28;20012;-68
2024/02/16 07:03:28;;;;;;;7.20;3.95;;;8.60;99.90;;;;;;5097418;28;20032;-69
2024/02/16 07:05:54;;;;;;;5.15;3.45;;;8.70;99.90;;;;;;5093138;28;20044;-68
2024/02/16 07:08:21;;;;;;;7.55;4.10;;;8.70;99.90;;;;;;5104380;28;20024;-67
2024/02/16 07:16:32;;;;;;;6.13;3.67;;;8.80;99.90;;;;;;5091608;28;19915;-69
2024/02/16 07:18:57;;;;;;;7.10;3.65;;;8.80;99.90;;;;;;5105609;28;20444;-69
2024/02/16 07:21:23;;;;;;;5.28;3.40;;;8.80;99.90;;;;;;5089169;28;20038;-68
2024/02/16 07:23:48;;;;;;;8.48;3.55;;;8.90;99.90;;;;;;5092567;28;20682;-69
2024/02/16 07:26:16;;;;;;;10.48;4.00;;;8.90;99.90;;;;;;5102959;28;20080;-69
2024/02/16 07:28:42;;;;;;;7.10;3.47;;;8.90;99.90;;;;;;5097452;28;20142;-69
2024/02/16 07:31:07;;;;;;;10.18;4.22;;;8.90;99.90;;;;;;5091515;28;20544;-68
2024/02/16 07:33:33;;;;;;;5.88;3.63;;;8.90;99.90;;;;;;5096258;28;20031;-69
2024/02/16 07:35:58;;;;;;;5.45;3.70;;;8.90;99.90;;;;;;5090234;28;20067;-69
2024/02/16 07:38:24;;;;;;;8.32;3.70;;;8.80;99.90;;;;;;5097836;28;20031;-69
2024/02/16 07:40:50;;;;;;;9.32;4.05;;;8.80;99.90;;;;;;5091719;28;20032;-69
2024/02/16 07:43:16;;;;;;;9.48;4.70;;;8.80;99.90;;;;;;5098453;28;20032;-69
2024/02/16 07:45:42;;;;;;;8.20;4.78;;;8.70;99.90;;;;;;5099765;28;20122;-69
2024/02/16 07:48:08;;;;;;;8.00;4.32;;;8.70;99.90;;;;;;5095186;28;20024;-69
2024/02/16 07:50:34;;;;;;;11.60;3.53;;;8.70;99.90;;;;;;5093689;28;20028;-69
2024/02/16 07:52:59;;;;;;;7.20;3.25;;;8.70;99.90;;;;;;5105702;28;20352;-69
2024/02/16 07:55:25;;;;;;;9.23;3.30;;;8.70;99.90;;;;;;5095637;28;20491;-68
2024/02/16 07:57:51;;;;;;;6.60;3.63;;;8.80;99.90;;;;;;5092047;28;20028;-69
2024/02/16 08:00:18;;;;;;;6.30;3.50;;;8.80;99.90;;;;;;5103039;28;20025;-69
2024/02/16 08:02:43;;;;;;;13.48;4.88;;;8.80;99.90;;;;;;5091324;28;20055;-69
2024/02/16 08:05:12;;;;;;;7.93;4.80;;;8.80;99.90;;;;;;5094475;28;20112;-69
2024/02/16 08:08:03;;;;;;;8.35;4.47;;;8.80;99.90;;;;;;5090227;28;20472;-69
2024/02/16 08:10:29;;;;;;;10.45;4.95;;;8.80;99.90;;;;;;5090954;28;20040;-69
2024/02/16 08:12:54;;;;;;;11.23;5.15;;;8.80;99.90;;;;;;5101096;28;20068;-68
2024/02/16 08:15:23;;;;;;;11.98;5.15;;;8.90;99.90;;;;;;5091926;28;20169;-68
2024/02/16 08:17:52;;;;;;;9.18;5.32;;;8.90;99.90;;;;;;5085702;28;20020;-68
2024/02/16 08:20:18;;;;;;;10.10;5.50;;;9.00;99.90;;;;;;5081182;28;20028;-69
2024/02/16 08:22:44;;;;;;;9.80;5.35;;;9.10;99.90;;;;;;5095493;28;20372;-69
2024/02/16 08:25:09;;;;;;;8.15;5.15;;;9.20;99.90;;;;;;5096131;27;20043;-70
2024/02/16 08:27:35;;;;;;;9.32;4.45;;;9.40;99.90;;;;;;5117831;27;20122;-70
2024/02/16 08:30:02;;;;;;;10.20;4.75;;;9.60;99.90;;;;;;5111913;28;20027;-69
2024/02/16 08:32:28;;;;;;;12.07;5.72;;;9.80;99.90;;;;;;5114650;28;20055;-70
2024/02/16 08:34:55;;;;;;;10.52;5.65;;;10.10;99.90;;;;;;5110249;28;20353;-69
2024/02/16 08:37:21;;;;;;;13.25;5.43;;;10.30;99.90;;;;;;5086700;28;20051;-69
2024/02/16 08:39:47;;;;;;;9.27;5.47;;;10.70;99.90;;;;;;5101662;28;20078;-69
2024/02/16 08:42:12;;;;;;;12.27;5.53;;;11.00;99.90;;;;;;5112704;28;20031;-69
2024/02/16 08:44:40;;;;;;;7.32;4.38;;;11.20;99.90;;;;;;5107678;27;20107;-70
2024/02/16 08:47:07;;;;;;;9.27;5.20;;;11.30;99.90;;;;;;5100444;28;20032;-70
2024/02/16 08:49:33;;;;;;;9.38;4.85;;;11.40;99.90;;;;;;5113544;28;20055;-69
2024/02/16 08:51:58;;;;;;;7.15;4.78;;;11.60;99.90;;;;;;5114000;28;20062;-69
2024/02/16 08:54:25;;;;;;;7.60;4.20;;;11.70;99.90;;;;;;5113143;28;20032;-69
2024/02/16 08:56:51;;;;;;;9.35;4.78;;;11.90;99.90;;;;;;5112017;28;20113;-69
2024/02/16 08:59:17;;;;;;;12.73;4.95;;;12.10;99.90;;;;;;5113871;28;20427;-69
2024/02/16 09:01:43;;;;;;;14.65;4.35;;;12.20;99.90;;;;;;5100543;28;20020;-68
2024/02/16 09:04:09;;;;;;;7.95;4.68;;;12.30;99.90;;;;;;5114233;28;20027;-68
2024/02/16 09:06:34;;;;;;;26.98;5.47;;;12.40;99.90;;;;;;5113477;28;20077;-68
2024/02/16 09:09:00;;;;;;;11.00;4.13;;;12.50;99.90;;;;;;5109211;28;20487;-68
2024/02/16 09:11:27;;;;;;;20.55;4.70;;;12.60;99.90;;;;;;5111980;28;20036;-68
2024/02/16 09:13:53;;;;;;;9.77;4.03;;;12.70;99.90;;;;;;5112620;28;20012;-69
2024/02/16 09:16:19;;;;;;;13.60;4.00;;;12.90;99.90;;;;;;5110073;28;20028;-69
2024/02/16 09:18:45;;;;;;;7.53;3.95;;;13.10;99.90;;;;;;5111923;28;20024;-69
2024/02/16 09:21:11;;;;;;;9.52;3.97;;;13.30;99.90;;;;;;5111574;28;20027;-69
2024/02/16 09:23:38;;;;;;;7.30;3.70;;;13.50;99.90;;;;;;5111573;27;20561;-69
2024/02/16 09:26:04;;;;;;;7.80;3.95;;;13.70;99.90;;;;;;5111830;27;20078;-69
2024/02/16 09:28:29;;;;;;;8.20;3.90;;;13.80;99.90;;;;;;5109405;28;20062;-69
2024/02/16 09:30:56;;;;;;;5.60;3.75;;;13.90;99.90;;;;;;5099502;28;20433;-69
2024/02/16 09:33:22;;;;;;;5.80;3.67;;;14.10;99.90;;;;;;5100290;28;20032;-69
2024/02/16 09:35:48;;;;;;;8.20;3.60;;;14.10;99.90;;;;;;5102640;28;20468;-69
2024/02/16 09:38:14;;;;;;;8.32;3.70;;;14.10;99.90;;;;;;5075273;28;20119;-69
2024/02/16 09:40:40;;;;;;;6.78;3.90;;;14.20;99.90;;;;;;5095538;28;20039;-69
2024/02/16 09:43:05;;;;;;;6.38;3.95;;;14.20;99.90;;;;;;5099334;28;20074;-69
2024/02/16 09:45:32;;;;;;;8.52;4.00;;;14.40;99.90;;;;;;5104120;28;20024;-69
2024/02/16 09:47:59;;;;;;;5.95;3.63;;;14.60;99.90;;;;;;5093060;28;20024;-69
2024/02/16 09:50:26;;;;;;;9.82;3.85;;;14.70;99.90;;;;;;5096698;28;20038;-69
2024/02/16 09:52:53;;;;;;;11.73;4.47;;;14.90;99.90;;;;;;5092219;28;20024;-69
2024/02/16 09:55:20;;;;;;;9.98;4.70;;;15.10;99.90;;;;;;5092333;28;20385;-69
2024/02/16 09:57:45;;;;;;;7.95;4.47;;;15.30;99.90;;;;;;5092020;28;20073;-69
2024/02/16 10:00:12;;;;;;;8.40;4.25;;;15.60;99.90;;;;;;5093175;28;20036;-69
2024/02/16 10:02:44;;;;;;;9.98;4.13;;;15.80;99.90;;;;;;5109601;28;20047;-69
2024/02/16 10:05:14;;;;;;;8.30;3.90;;;16.00;99.90;;;;;;5092138;28;20342;-69
2024/02/16 10:07:40;;;;;;;5.53;3.80;;;16.10;99.90;;;;;;5092000;28;20115;-69
2024/02/16 10:10:06;;;;;;;5.65;4.30;;;16.30;99.90;;;;;;5091801;28;20103;-69
2024/02/16 10:12:32;;;;;;;9.95;4.10;;;16.50;99.90;;;;;;5102350;28;20028;-69
2024/02/16 10:14:59;;;;;;;7.85;4.28;;;16.60;99.90;;;;;;5095395;28;20020;-69
2024/02/16 10:17:25;;;;;;;10.40;4.40;;;16.60;99.90;;;;;;5092431;28;20036;-69
2024/02/16 10:20:06;;;;;;;6.57;3.97;;;16.60;99.90;;;;;;5093334;28;20538;-69
2024/02/16 10:22:32;;;;;;;9.63;4.20;;;16.60;99.90;;;;;;5092674;28;20043;-70
2024/02/16 10:25:11;;;;;;;9.90;4.25;;;16.60;99.90;;;;;;5096557;28;20024;-69
2024/02/16 10:27:37;;;;;;;8.88;4.30;;;16.60;99.90;;;;;;5096869;28;20388;-70
2024/02/16 10:30:09;;;;;;;7.13;3.65;;;16.60;99.90;;;;;;5091868;28;20036;-68
2024/02/16 10:32:39;;;;;;;12.05;4.18;;;16.70;99.90;;;;;;5096118;28;20107;-69
2024/02/16 10:35:08;;;;;;;13.27;5.07;;;16.80;99.90;;;;;;5101840;28;20476;-68
2024/02/16 10:37:34;;;;;;;7.00;3.97;;;16.90;99.90;;;;;;5101494;28;20039;-69
2024/02/16 10:40:01;;;;;;;11.80;4.80;;;17.00;99.90;;;;;;5095451;28;20250;-69
2024/02/16 10:42:29;;;;;;;10.85;4.50;;;17.00;99.90;;;;;;5092375;28;20031;-69
2024/02/16 10:44:55;;;;;;;14.13;4.50;;;17.10;99.90;;;;;;5105336;28;20062;-69
2024/02/16 10:47:21;;;;;;;8.85;4.10;;;17.10;99.90;;;;;;5100200;28;20036;-68
2024/02/16 10:49:46;;;;;;;9.50;4.35;;;17.20;99.90;;;;;;5092979;28;20055;-69
2024/02/16 10:52:14;;;;;;;6.78;4.00;;;17.30;99.90;;;;;;5097230;28;20027;-69
2024/02/16 10:54:41;;;;;;;8.35;3.80;;;17.30;99.90;;;;;;5089041;28;20028;-69
2024/02/16 10:57:13;;;;;;;9.05;3.83;;;;;;;;;;5097598;28;20039;-69
2024/02/16 10:59:44;;;;;;;7.25;3.60;;;;;;;;;;5101590;28;20022;-69
2024/02/16 11:02:12;;;;;;;7.40;3.78;;;;;;;;;;5103181;28;20348;-69
2024/02/16 11:04:39;;;;;;;4.68;2.85;;;17.80;99.90;;;;;;5099268;28;20034;-69
2024/02/16 11:07:11;;;;;;;6.20;3.17;;;17.90;99.90;;;;;;5092941;28;20117;-69
2024/02/16 11:09:39;;;;;;;7.22;3.33;;;18.00;99.90;;;;;;5090404;28;20020;-69
2024/02/16 11:12:11;;;;;;;7.10;3.28;;;18.10;99.90;;;;;;5093365;28;20082;-68
2024/02/16 11:14:52;;;;;;;11.20;3.92;;;18.20;99.90;;;;;;5090069;28;20082;-68
2024/02/16 11:17:22;;;;;;;10.93;3.80;;;18.20;99.90;;;;;;5099598;28;20035;-69
2024/02/16 11:19:49;;;;;;;5.18;3.00;;;18.30;99.90;;;;;;5075344;28;20065;-69
2024/02/16 11:22:19;;;;;;;9.45;4.07;;;18.30;99.90;;;;;;5096604;28;20525;-69
2024/02/16 11:24:54;;;;;;;9.25;3.40;;;18.30;99.90;;;;;;5094837;28;20023;-69
2024/02/16 11:27:21;;;;;;;5.28;3.35;;;18.30;99.90;;;;;;5107299;28;20131;-68
2024/02/16 11:29:47;;;;;;;7.28;3.47;;;18.30;99.90;;;;;;5104461;28;20024;-69
2024/02/16 11:32:12;;;;;;;6.97;3.40;;;18.20;99.90;;;;;;5115585;27;20047;-69
2024/02/16 11:34:38;;;;;;;10.57;3.95;;;18.20;99.90;;;;;;5109355;27;20141;-69
2024/02/16 11:37:07;;;;;;;6.78;3.13;;;18.10;99.90;;;;;;5103717;28;20089;-69
2024/02/16 11:39:36;;;;;;;6.70;2.97;;;18.20;99.90;;;;;;5110570;28;20024;-69
2024/02/16 11:42:07;;;;;;;8.48;3.63;;;18.20;99.90;;;;;;5111806;28;20257;-68
2024/02/16 11:44:34;;;;;;;9.40;3.80;;;18.20;99.90;;;;;;5108602;28;20073;-69
2024/02/16 11:47:01;;;;;;;6.35;3.30;;;18.20;99.90;;;;;;5105490;28;20034;-69
2024/02/16 11:49:29;;;;;;;8.27;3.35;;;18.30;99.90;;;;;;5108246;28;20023;-69
2024/02/16 11:51:55;;;;;;;5.75;3.35;;;18.30;99.90;;;;;;5104428;28;20032;-69
2024/02/16 11:54:21;;;;;;;4.97;2.72;;;18.30;99.90;;;;;;5107251;28;20445;-68
2024/02/16 11:56:51;;;;;;;3.85;2.40;;;;;;;;;;5108910;28;20060;-68
2024/02/16 11:59:19;;;;;;;4.78;2.95;;;;;;;;;;5097361;28;20076;-68
2024/02/16 12:01:53;;;;;;;8.85;2.72;;;;;;;;;;5106757;28;20032;-69
2024/02/16 12:04:23;;;;;;;5.10;2.40;;;;;;;;;;5101405;28;20016;-69
2024/02/16 12:06:51;;;;;;;6.60;2.30;;;;;;;;;;5111090;28;20027;-66
2024/02/16 12:09:17;;;;;;;5.55;2.53;;;;;;;;;;5111183;28;20031;-68
2024/02/16 12:11:43;;;;;;;4.32;2.53;;;;;;;;;;5110751;28;20027;-68
2024/02/16 12:14:09;;;;;;;6.60;2.25;;;;;;;;;;5110471;28;20045;-69
2024/02/16 12:16:35;;;;;;;6.13;2.75;;;;;;;;;;5109707;28;20032;-68
2024/02/16 12:19:08;;;;;;;5.75;2.42;;;;;;;;;;5105257;28;20404;-68
2024/02/16 12:21:35;;;;;;;7.47;2.67;;;;;;;;;;5105822;28;20348;-68
2024/02/16 12:24:00;;;;;;;5.72;2.80;;;;;;;;;;5108858;28;20020;-68
2024/02/16 12:26:26;;;;;;;4.75;2.58;;;;;;;;;;5104707;28;20453;-68
2024/02/16 12:28:52;;;;;;;5.15;2.55;;;;;;;;;;5101798;28;20019;-68
2024/02/16 12:31:22;;;;;;;9.38;2.72;;;;;;;;;;5095281;28;20058;-68
2024/02/16 12:33:48;;;;;;;6.97;2.90;;;;;;;;;;5101832;28;20022;-68
2024/02/16 12:36:14;;;;;;;6.88;3.00;;;;;;;;;;5104129;28;20043;-68
2024/02/16 12:38:43;;;;;;;5.88;2.67;;;;;;;;;;5098340;28;20028;-68
2024/02/16 12:41:09;;;;;;;3.67;2.50;;;;;;;;;;5091205;28;20024;-68
2024/02/16 12:43:35;;;;;;;6.18;2.70;;;;;;;;;;5102066;28;20031;-68
2024/02/16 12:46:03;;;;;;;5.00;3.00;;;;;;;;;;5098438;28;20342;-68
2024/02/16 12:48:29;;;;;;;5.72;2.95;;;;;;;;;;5095644;28;20461;-68
2024/02/16 12:50:57;;;;;;;4.72;2.63;;;;;;;;;;5101647;28;20369;-68
2024/02/16 12:53:24;;;;;;;6.90;2.50;;;;;;;;;;5110475;28;20018;-68
2024/02/16 12:55:50;;;;;;;4.72;3.10;;;;;;;;;;5102596;28;20488;-68
2024/02/16 12:58:16;;;;;;;5.80;2.92;;;;;;;;;;5092751;28;20412;-68
2024/02/16 13:00:42;;;;;;;3.90;2.70;;;;;;;;;;5105149;28;20159;-68
2024/02/16 13:03:08;;;;;;;6.07;2.75;;;;;;;;;;5103155;28;20099;-69
2024/02/16 13:05:35;;;;;;;8.45;2.65;;;;;;;;;;5096544;28;20027;-69